Time;durP1;ratioP1;P1;durP2;ratioP2;P2;SDS_P1;SDS_P2;PMS_P1;PMS_P2;Temp;Humidity;BMP_temperature;BMP_pressure;BME280_temperature;BME280_humidity;BME280_pressure;Samples;Min_cycle;Max_cycle;Signal;HPM_P1;HPM_P2
2023/12/19 00:02:02;;;;;;;50.30;32.03;;;;;;;4.42;100.00;102528.59;5052989;28;20033;-80
2023/12/19 00:04:28;;;;;;;43.30;31.30;;;;;;;4.42;100.00;102533.81;5056258;28;20020;-79
2023/12/19 00:06:54;;;;;;;45.53;32.22;;;;;;;4.44;100.00;102532.88;5065072;28;20032;-80
2023/12/19 00:09:21;;;;;;;45.95;32.75;;;;;;;4.48;100.00;102534.53;5051471;28;20397;-79
2023/12/19 00:11:46;;;;;;;45.30;32.55;;;;;;;4.48;100.00;102531.91;5049299;28;20051;-80
2023/12/19 00:14:12;;;;;;;42.38;32.22;;;;;;;4.50;100.00;102521.47;5051467;28;20476;-79
2023/12/19 00:16:37;;;;;;;44.38;33.15;;;;;;;4.50;100.00;102513.63;5050899;28;20029;-80
2023/12/19 00:19:02;;;;;;;46.53;31.92;;;;;;;4.50;100.00;102511.03;5050008;28;20024;-79
2023/12/19 00:21:28;;;;;;;41.60;31.58;;;;;;;4.52;100.00;102501.44;5048879;28;20132;-79
2023/12/19 00:23:53;;;;;;;44.63;31.42;;;;;;;4.53;100.00;102500.53;5050373;28;20021;-80
2023/12/19 00:26:18;;;;;;;42.20;31.27;;;;;;;4.53;100.00;102495.31;5063137;28;20025;-80
2023/12/19 00:28:44;;;;;;;46.10;32.28;;;;;;;4.54;100.00;102497.03;5051589;28;20233;-79
2023/12/19 00:31:19;;;;;;;49.17;34.53;;;;;;;4.56;100.00;102501.31;5062397;28;20028;-79
2023/12/19 00:33:44;;;;;;;46.08;32.75;;;;;;;4.57;100.00;102496.97;5050787;28;20110;-80
2023/12/19 00:36:17;;;;;;;45.08;32.47;;;;;;;4.58;100.00;102485.66;5055584;28;20048;-80
2023/12/19 00:38:42;;;;;;;49.08;32.75;;;;;;;4.56;100.00;102477.00;5063601;28;20039;-80
2023/12/19 00:41:08;;;;;;;44.30;32.20;;;;;;;4.57;100.00;102478.72;5065897;28;20115;-80
2023/12/19 00:43:33;;;;;;;47.40;32.78;;;;;;;4.58;100.00;102478.69;5056063;28;20029;-80
2023/12/19 00:45:58;;;;;;;45.97;32.92;;;;;;;4.57;100.00;102476.97;5051656;28;20628;-80
2023/12/19 00:48:25;;;;;;;44.58;32.60;;;;;;;4.57;100.00;102473.50;5063143;28;20075;-80
2023/12/19 00:50:50;;;;;;;44.20;32.67;;;;;;;4.56;100.00;102453.56;5068157;28;20353;-80
2023/12/19 00:53:16;;;;;;;44.08;32.40;;;;;;;4.59;100.00;102454.34;5066940;28;20097;-80
2023/12/19 00:55:41;;;;;;;45.80;32.65;;;;;;;4.60;100.00;102439.56;5067535;28;20423;-80
2023/12/19 00:58:06;;;;;;;49.75;33.53;;;;;;;4.60;100.00;102439.56;5050374;28;20029;-80
2023/12/19 01:00:32;;;;;;;45.05;33.17;;;;;;;4.61;100.00;102436.06;5056335;28;20429;-79
2023/12/19 01:03:00;;;;;;;46.60;33.42;;;;;;;4.60;100.00;102429.13;5062594;28;20070;-80
2023/12/19 01:05:25;;;;;;;54.28;34.03;;;;;;;4.62;100.00;102424.72;5067758;28;20392;-80
2023/12/19 01:07:51;;;;;;;46.42;33.53;;;;;;;4.62;100.00;102429.94;5068713;28;20021;-80
2023/12/19 01:10:16;;;;;;;51.90;34.75;;;;;;;4.63;100.00;102416.00;5067528;28;20042;-80
2023/12/19 01:12:41;;;;;;;45.15;33.97;;;;;;;4.64;100.00;102415.13;5068156;28;20021;-80
2023/12/19 01:15:07;;;;;;;49.08;34.55;;;;;;;4.67;100.00;102415.03;5068683;28;20117;-80
2023/12/19 01:17:32;;;;;;;50.22;34.33;;;;;;;4.68;100.00;102411.53;5063999;28;20035;-79
2023/12/19 01:19:58;;;;;;;53.40;35.25;;;;;;;4.68;100.00;102408.94;5063808;28;20016;-79
2023/12/19 01:22:24;;;;;;;49.88;34.17;;;;;;;4.69;100.00;102410.66;5068317;28;20025;-80
2023/12/19 01:24:49;;;;;;;49.88;33.92;;;;;;;4.69;100.00;102408.91;5069512;28;20706;-80
2023/12/19 01:27:14;;;;;;;50.33;34.85;;;;;;;4.69;100.00;102411.50;5052076;28;20115;-80
2023/12/19 01:29:41;;;;;;;53.03;35.60;;;;;;;4.72;100.00;102407.97;5050708;28;20082;-80
2023/12/19 01:32:06;;;;;;;53.05;34.55;;;;;;;4.73;100.00;102412.28;5047991;28;20041;-80
2023/12/19 01:34:31;;;;;;;53.95;35.40;;;;;;;4.73;100.00;102412.28;5049554;28;20031;-80
2023/12/19 01:37:00;;;;;;;53.25;34.90;;;;;;;4.72;100.00;102411.44;5060269;28;20071;-80
2023/12/19 01:39:26;;;;;;;50.33;34.92;;;;;;;4.75;100.00;102417.47;5057919;28;20032;-80
2023/12/19 01:41:51;;;;;;;51.63;35.22;;;;;;;4.74;100.00;102416.59;5058611;28;20524;-80
2023/12/19 01:44:18;;;;;;;50.47;34.58;;;;;;;4.77;100.00;102416.53;5048170;28;20818;-80
2023/12/19 01:46:44;;;;;;;50.40;34.88;;;;;;;4.77;100.00;102405.25;5048313;28;20081;-80
2023/12/19 01:49:09;;;;;;;54.88;36.60;;;;;;;4.78;100.00;102401.75;5050526;28;20513;-80
2023/12/19 01:51:35;;;;;;;50.13;34.90;;;;;;;4.79;100.00;102413.88;5055224;28;20616;-80
2023/12/19 01:54:03;;;;;;;51.72;35.75;;;;;;;4.81;100.00;102412.13;5058790;28;20033;-80
2023/12/19 01:56:28;;;;;;;51.90;36.33;;;;;;;4.81;100.00;102401.69;5060421;28;20059;-80
2023/12/19 01:58:54;;;;;;;50.92;34.78;;;;;;;4.82;100.00;102396.44;5053401;28;20095;-80
2023/12/19 02:01:19;;;;;;;51.97;35.83;;;;;;;4.83;100.00;102395.53;5061636;28;20036;-79
2023/12/19 02:03:45;;;;;;;51.92;34.78;;;;;;;4.82;100.00;102387.75;5065212;28;20060;-81
2023/12/19 02:06:12;;;;;;;51.42;34.35;;;;;;;4.83;100.00;102392.94;5067366;28;20021;-79
2023/12/19 02:08:38;;;;;;;50.13;34.05;;;;;;;4.84;100.00;102397.25;5064550;28;20024;-79
2023/12/19 02:11:04;;;;;;;51.17;34.45;;;;;;;4.84;100.00;102386.81;5046801;28;20024;-79
2023/12/19 02:13:29;;;;;;;50.50;34.80;;;;;;;4.85;100.00;102388.53;5052818;28;20021;-79
2023/12/19 02:15:55;;;;;;;48.63;34.63;;;;;;;4.86;100.00;102387.63;5053788;28;20047;-79
2023/12/19 02:18:21;;;;;;;44.92;33.50;;;;;;;4.88;100.00;102382.38;5067187;28;20029;-79
2023/12/19 02:20:47;;;;;;;53.58;35.58;;;;;;;4.88;100.00;102372.81;5068079;28;20078;-79
2023/12/19 02:23:13;;;;;;;51.17;34.58;;;;;;;4.87;100.00;102371.09;5063761;28;20024;-80
2023/12/19 02:25:39;;;;;;;46.75;34.00;;;;;;;4.88;100.00;102357.16;5053375;28;20028;-80
2023/12/19 02:28:06;;;;;;;49.28;34.63;;;;;;;4.88;100.00;102356.31;5067485;28;20031;-80
2023/12/19 02:30:32;;;;;;;50.38;33.60;;;;;;;4.87;100.00;102352.84;5062881;28;20013;-80
2023/12/19 02:32:58;;;;;;;53.10;35.13;;;;;;;4.87;100.00;102360.66;5059493;28;20045;-80
2023/12/19 02:35:24;;;;;;;50.15;33.70;;;;;;;4.86;100.00;102364.16;5048806;28;20025;-80
2023/12/19 02:37:50;;;;;;;48.35;33.88;;;;;;;4.86;100.00;102363.31;5047830;28;20033;-80
2023/12/19 02:40:18;;;;;;;46.13;33.08;;;;;;;4.86;100.00;102358.97;5047130;28;20029;-81
2023/12/19 02:42:44;;;;;;;47.80;33.92;;;;;;;4.86;100.00;102353.75;5064955;28;20056;-80
2023/12/19 02:45:10;;;;;;;46.75;34.22;;;;;;;4.86;100.00;102358.97;5069347;28;20484;-81
2023/12/19 02:47:36;;;;;;;49.70;34.13;;;;;;;4.84;100.00;102355.53;5052949;28;20102;-80
2023/12/19 02:50:01;;;;;;;49.85;33.75;;;;;;;4.86;100.00;102353.75;5066536;28;20024;-81
2023/12/19 02:52:26;;;;;;;45.15;32.33;;;;;;;4.86;100.00;102343.31;5057863;28;20079;-80
2023/12/19 02:54:52;;;;;;;45.40;32.65;;;;;;;4.86;100.00;102338.09;5051011;28;20063;-79
2023/12/19 02:57:17;;;;;;;47.00;32.85;;;;;;;4.87;100.00;102329.38;5062689;28;20488;-79
2023/12/19 02:59:42;;;;;;;45.40;33.00;;;;;;;4.86;100.00;102324.19;5056363;28;20087;-79
2023/12/19 03:02:08;;;;;;;47.47;33.50;;;;;;;4.85;100.00;102310.31;5049684;28;20112;-79
2023/12/19 03:04:33;;;;;;;45.85;32.58;;;;;;;4.84;100.00;102311.19;5058434;28;20020;-79
2023/12/19 03:06:58;;;;;;;44.70;32.33;;;;;;;4.86;100.00;102306.81;5062407;28;20084;-79
2023/12/19 03:09:24;;;;;;;47.15;32.42;;;;;;;4.85;100.00;102307.69;5053262;28;20071;-79
2023/12/19 03:12:03;;;;;;;45.72;32.50;;;;;;;4.85;100.00;102299.03;5060653;28;20009;-79
2023/12/19 03:14:28;;;;;;;45.67;33.15;;;;;;;4.84;100.00;102292.94;5068791;28;20111;-78
2023/12/19 03:16:54;;;;;;;45.65;32.67;;;;;;;4.85;100.00;102289.44;5067038;28;21813;-80
2023/12/19 03:19:19;;;;;;;45.30;32.25;;;;;;;4.82;100.00;102284.31;5068058;28;20031;-80
2023/12/19 03:21:44;;;;;;;45.05;31.25;;;;;;;4.83;100.00;102288.63;5069392;28;20028;-80
2023/12/19 03:24:10;;;;;;;45.05;32.00;;;;;;;4.84;100.00;102282.53;5066562;28;20400;-80
2023/12/19 03:26:35;;;;;;;45.80;32.53;;;;;;;4.83;100.00;102280.81;5064972;28;20374;-81
2023/12/19 03:29:00;;;;;;;48.95;33.17;;;;;;;4.84;100.00;102277.31;5068886;28;20116;-80
2023/12/19 03:31:26;;;;;;;46.83;32.33;;;;;;;4.84;100.00;102264.28;5060795;28;20466;-80
2023/12/19 03:33:51;;;;;;;47.65;31.58;;;;;;;4.84;100.00;102253.84;5052754;28;20441;-80
2023/12/19 03:36:16;;;;;;;45.35;32.22;;;;;;;4.85;100.00;102239.91;5068005;28;20038;-80
2023/12/19 03:38:42;;;;;;;47.67;33.20;;;;;;;4.85;100.00;102237.28;5069336;28;20043;-81
2023/12/19 03:41:07;;;;;;;49.03;33.55;;;;;;;4.86;100.00;102238.16;5069244;28;20100;-80
2023/12/19 03:43:34;;;;;;;43.90;32.72;;;;;;;4.84;100.00;102229.50;5067057;28;20419;-80
2023/12/19 03:46:02;;;;;;;50.20;34.03;;;;;;;4.86;100.00;102227.72;5054409;28;20032;-80
2023/12/19 03:48:28;;;;;;;47.42;33.30;;;;;;;4.86;100.00;102223.34;5063160;28;20389;-81
2023/12/19 03:50:53;;;;;;;48.13;33.10;;;;;;;4.87;100.00;102230.28;5054406;28;20031;-80
2023/12/19 03:53:18;;;;;;;48.53;33.95;;;;;;;4.87;100.00;102225.06;5048722;28;20028;-80
2023/12/19 03:55:44;;;;;;;52.72;35.38;;;;;;;4.89;100.00;102227.63;5055106;28;20435;-80
2023/12/19 03:58:09;;;;;;;53.17;36.25;;;;;;;4.90;100.00;102222.38;5069376;28;20481;-80
2023/12/19 04:00:34;;;;;;;55.55;36.60;;;;;;;4.90;100.00;102224.13;5062575;28;20846;-80
2023/12/19 04:03:00;;;;;;;58.47;40.55;;;;;;;4.90;100.00;102219.75;5059802;28;20150;-80
2023/12/19 04:05:25;;;;;;;60.72;39.13;;;;;;;4.92;100.00;102212.75;5052481;28;20056;-80
2023/12/19 04:07:51;;;;;;;63.47;40.17;;;;;;;4.92;100.00;102202.31;5048685;28;20037;-81
2023/12/19 04:10:16;;;;;;;65.88;42.05;;;;;;;4.93;100.00;102213.59;5051791;28;20033;-81
2023/12/19 04:12:44;;;;;;;64.80;41.17;;;;;;;4.95;100.00;102212.66;5070108;28;20020;-81
2023/12/19 04:15:10;;;;;;;62.35;41.80;;;;;;;4.95;100.00;102217.88;5067247;28;20024;-80
2023/12/19 04:17:35;;;;;;;63.53;42.35;;;;;;;4.97;100.00;102205.66;5069522;28;20174;-80
2023/12/19 04:20:01;;;;;;;68.95;41.58;;;;;;;4.99;100.00;102213.41;5065928;28;20021;-81
2023/12/19 04:22:26;;;;;;;70.25;42.40;;;;;;;5.01;100.00;102209.88;5059902;28;20029;-81
2023/12/19 04:24:52;;;;;;;68.78;42.95;;;;;;;5.02;100.00;102198.53;5053778;28;20025;-81
2023/12/19 04:27:17;;;;;;;71.20;43.78;;;;;;;5.03;100.00;102184.59;5048784;28;20230;-81
2023/12/19 04:29:45;;;;;;;66.72;42.20;;;;;;;5.06;100.00;102177.56;5048844;28;20063;-80
2023/12/19 04:32:13;;;;;;;67.78;42.13;;;;;;;5.08;100.00;102165.34;5051500;28;20041;-81
2023/12/19 04:34:38;;;;;;;68.28;42.38;;;;;;;5.10;100.00;102163.53;5067627;28;20051;-81
2023/12/19 04:37:04;;;;;;;69.32;44.58;;;;;;;5.12;100.00;102165.19;5067306;28;20131;-80
2023/12/19 04:39:29;;;;;;;72.82;42.75;;;;;;;5.12;100.00;102146.09;5066222;28;20472;-79
2023/12/19 04:41:54;;;;;;;69.05;44.08;;;;;;;5.15;100.00;102140.78;5052358;28;20052;-81
2023/12/19 04:44:20;;;;;;;68.05;43.20;;;;;;;5.17;100.00;102142.44;5046426;28;20079;-79
2023/12/19 04:46:45;;;;;;;67.30;42.63;;;;;;;5.19;100.00;102138.03;5049330;28;20041;-79
2023/12/19 04:49:10;;;;;;;66.72;42.60;;;;;;;5.21;100.00;102124.97;5051213;28;20119;-80
2023/12/19 04:51:36;;;;;;;65.32;42.85;;;;;;;5.22;100.00;102111.00;5053689;28;20037;-79
2023/12/19 04:54:03;;;;;;;64.10;42.63;;;;;;;5.23;100.00;102107.50;5053843;28;20030;-80
2023/12/19 04:56:29;;;;;;;63.03;41.92;;;;;;;5.26;100.00;102123.91;5067957;28;20061;-80
2023/12/19 04:58:54;;;;;;;66.35;42.45;;;;;;;5.28;100.00;102116.88;5059925;28;20472;-80
2023/12/19 05:01:19;;;;;;;66.50;41.55;;;;;;;5.32;100.00;102115.03;5059988;28;20086;-80
2023/12/19 05:03:45;;;;;;;64.22;41.63;;;;;;;5.34;100.00;102105.41;5069081;28;20070;-80
2023/12/19 05:06:17;;;;;;;65.22;40.75;;;;;;;5.35;100.00;102101.88;5068500;28;20102;-80
2023/12/19 05:08:44;;;;;;;67.13;42.47;;;;;;;5.38;100.00;102122.66;5067727;28;20143;-80
2023/12/19 05:11:10;;;;;;;66.40;41.17;;;;;;;5.41;100.00;102119.09;5066839;28;20024;-80
2023/12/19 05:13:36;;;;;;;64.60;41.80;;;;;;;5.43;100.00;102115.53;5051348;28;20033;-80
2023/12/19 05:16:15;;;;;;;61.33;40.10;;;;;;;5.46;100.00;102125.00;5064982;28;20040;-80
2023/12/19 05:18:41;;;;;;;58.35;38.92;;;;;;;5.46;100.00;102125.00;5049237;28;20032;-80
2023/12/19 05:21:11;;;;;;;58.25;39.40;;;;;;;5.47;100.00;102130.19;5056566;28;20162;-80
2023/12/19 05:23:37;;;;;;;59.25;40.60;;;;;;;5.50;100.00;102121.41;5052312;28;20037;-80
2023/12/19 05:26:07;;;;;;;57.25;39.30;;;;;;;5.52;100.00;102122.22;5063080;28;20028;-79
2023/12/19 05:28:35;;;;;;;56.70;39.45;;;;;;;5.53;100.00;102122.16;5056930;28;20025;-79
2023/12/19 05:31:00;;;;;;;54.83;39.25;;;;;;;5.56;100.00;102121.19;5059670;28;20080;-79
2023/12/19 05:33:26;;;;;;;61.40;38.72;;;;;;;5.57;100.00;102113.31;5046818;28;20411;-80
2023/12/19 05:35:53;;;;;;;56.08;38.80;;;;;;;5.58;100.00;102107.19;5048078;28;20532;-80
2023/12/19 05:38:18;;;;;;;53.85;37.70;;;;;;;5.60;100.00;102107.13;5057313;28;20782;-80
2023/12/19 05:40:44;;;;;;;52.65;37.42;;;;;;;5.63;100.00;102110.53;5067460;28;20097;-80
2023/12/19 05:43:10;;;;;;;52.53;37.47;;;;;;;5.65;100.00;102110.47;5067770;28;20328;-80
2023/12/19 05:45:35;;;;;;;55.50;37.42;;;;;;;5.66;100.00;102096.53;5064136;28;20052;-80
2023/12/19 05:48:00;;;;;;;58.78;38.05;;;;;;;5.67;100.00;102090.41;5055009;28;20052;-80
2023/12/19 05:50:26;;;;;;;56.35;37.15;;;;;;;5.70;100.00;102092.03;5064938;28;20063;-80
2023/12/19 05:52:52;;;;;;;48.97;36.63;;;;;;;5.71;100.00;102081.56;5054004;28;20032;-79
2023/12/19 05:55:18;;;;;;;48.95;35.45;;;;;;;5.73;100.00;102086.72;5061610;28;20418;-80
2023/12/19 05:57:44;;;;;;;47.50;35.25;;;;;;;5.73;100.00;102071.91;5065133;28;20028;-80
2023/12/19 06:00:09;;;;;;;48.30;35.30;;;;;;;5.75;100.00;102069.25;5064247;28;20098;-79
2023/12/19 06:02:35;;;;;;;51.13;35.65;;;;;;;5.76;100.00;102070.94;5058149;28;20029;-80
2023/12/19 06:05:01;;;;;;;45.47;34.50;;;;;;;5.75;100.00;102070.09;5053585;28;20492;-79
2023/12/19 06:07:26;;;;;;;46.47;34.85;;;;;;;5.77;100.00;102075.25;5058243;28;20388;-79
2023/12/19 06:09:52;;;;;;;47.55;33.72;;;;;;;5.76;100.00;102055.28;5061389;28;20024;-79
2023/12/19 06:12:17;;;;;;;46.60;33.78;;;;;;;5.76;100.00;102065.72;5059979;28;20545;-80
2023/12/19 06:14:43;;;;;;;48.22;33.20;;;;;;;5.77;100.00;102059.59;5066719;28;20029;-81
2023/12/19 06:17:08;;;;;;;42.95;34.03;;;;;;;5.75;100.00;102070.09;5067146;28;20051;-81
2023/12/19 06:19:34;;;;;;;42.40;33.20;;;;;;;5.78;100.00;102069.97;5069712;28;20040;-81
2023/12/19 06:21:59;;;;;;;44.33;32.90;;;;;;;5.78;100.00;102061.28;5057489;28;20075;-81
2023/12/19 06:24:25;;;;;;;40.35;31.70;;;;;;;5.78;100.00;102054.31;5061977;28;20036;-81
2023/12/19 06:26:50;;;;;;;42.63;32.30;;;;;;;5.79;100.00;102060.38;5055864;28;20090;-80
2023/12/19 06:29:16;;;;;;;45.85;31.15;;;;;;;5.80;100.00;102064.72;5050985;28;20063;-80
2023/12/19 06:31:43;;;;;;;43.15;31.45;;;;;;;5.80;100.00;102064.72;5050876;28;20203;-80
2023/12/19 06:34:09;;;;;;;39.70;31.50;;;;;;;5.82;100.00;102060.28;5053199;28;20032;-81
2023/12/19 06:36:37;;;;;;;40.85;31.75;;;;;;;5.83;100.00;102062.00;5071213;28;20392;-81
2023/12/19 06:39:02;;;;;;;40.42;31.50;;;;;;;5.84;100.00;102048.03;5071683;28;20056;-81
2023/12/19 06:41:28;;;;;;;38.08;30.10;;;;;;;5.85;100.00;102052.34;5071808;28;20052;-81
2023/12/19 06:43:53;;;;;;;39.20;31.08;;;;;;;5.87;100.00;102050.53;5070404;28;20025;-81
2023/12/19 06:46:19;;;;;;;40.63;30.77;;;;;;;5.87;100.00;102050.53;5060654;28;20115;-81
2023/12/19 06:48:44;;;;;;;38.70;30.73;;;;;;;5.89;100.00;102051.31;5053924;28;20238;-80
2023/12/19 06:51:10;;;;;;;36.60;29.90;;;;;;;5.89;100.00;102056.53;5068837;28;20036;-81
2023/12/19 06:53:35;;;;;;;41.97;30.92;;;;;;;5.90;100.00;102050.44;5066463;28;20039;-81
2023/12/19 06:56:01;;;;;;;39.38;29.67;;;;;;;5.90;100.00;102053.06;5058378;28;20078;-80
2023/12/19 06:58:27;;;;;;;35.08;29.08;;;;;;;5.91;100.00;102053.00;5067909;28;20456;-81
2023/12/19 07:00:52;;;;;;;38.50;28.58;;;;;;;5.90;100.00;102043.47;5069780;28;20036;-80
2023/12/19 07:03:18;;;;;;;42.08;29.20;;;;;;;5.92;100.00;102048.63;5049378;28;20060;-81
2023/12/19 07:05:43;;;;;;;42.80;29.45;;;;;;;5.93;100.00;102037.28;5051221;28;20361;-81
2023/12/19 07:08:09;;;;;;;37.35;27.88;;;;;;;5.93;100.00;102040.75;5050501;28;20033;-81
2023/12/19 07:10:34;;;;;;;37.63;27.88;;;;;;;5.94;100.00;102029.38;5048511;28;20527;-80
2023/12/19 07:13:00;;;;;;;37.63;27.98;;;;;;;5.96;100.00;102038.03;5058396;28;20067;-80
2023/12/19 07:15:25;;;;;;;35.65;27.67;;;;;;;5.97;100.00;102038.88;5062652;28;20024;-80
2023/12/19 07:17:51;;;;;;;35.80;27.25;;;;;;;6.00;100.00;102020.47;5068572;28;20056;-81
2023/12/19 07:20:16;;;;;;;31.23;26.63;;;;;;;6.01;100.00;102030.03;5069449;28;20029;-80
2023/12/19 07:22:44;;;;;;;33.10;26.90;;;;;;;6.03;100.00;102027.38;5069421;28;20024;-81
2023/12/19 07:25:09;;;;;;;32.28;25.67;;;;;;;6.04;100.00;102021.25;5069582;28;20024;-81
2023/12/19 07:27:35;;;;;;;35.10;26.23;;;;;;;6.07;100.00;102019.38;5070206;28;20040;-80
2023/12/19 07:30:00;;;;;;;34.10;26.48;;;;;;;6.10;100.00;102013.19;5068762;28;20070;-81
2023/12/19 07:32:25;;;;;;;31.13;25.15;;;;;;;6.11;100.00;102018.34;5067901;28;20040;-80
2023/12/19 07:34:51;;;;;;;32.55;25.65;;;;;;;6.12;100.00;102007.00;5070175;28;20392;-80
2023/12/19 07:37:17;;;;;;;31.20;24.40;;;;;;;6.14;100.00;102015.63;5069935;28;20381;-80
2023/12/19 07:39:42;;;;;;;26.50;23.63;;;;;;;6.15;100.00;102025.16;5070568;28;20016;-80
2023/12/19 07:42:08;;;;;;;29.52;24.27;;;;;;;6.17;100.00;102028.56;5070430;28;20554;-81
2023/12/19 07:44:33;;;;;;;28.67;24.25;;;;;;;6.18;100.00;102030.28;5069658;28;20500;-80
2023/12/19 07:46:59;;;;;;;29.70;22.98;;;;;;;6.20;100.00;102025.84;5068644;28;20032;-80
2023/12/19 07:49:24;;;;;;;28.77;22.63;;;;;;;6.21;100.00;102022.31;5071056;28;20550;-80
2023/12/19 07:51:50;;;;;;;30.85;23.48;;;;;;;6.23;100.00;102007.44;5065652;28;20371;-80
2023/12/19 07:54:17;;;;;;;27.90;21.95;;;;;;;6.26;100.00;102014.31;5067989;28;20479;-80
2023/12/19 07:56:42;;;;;;;25.25;22.13;;;;;;;6.27;100.00;102010.78;5069290;28;20107;-80
2023/12/19 07:59:09;;;;;;;26.92;21.33;;;;;;;6.28;100.00;102002.03;5064498;28;20120;-80
2023/12/19 08:01:35;;;;;;;25.58;20.60;;;;;;;6.28;100.00;102008.09;5069310;28;20021;-80
2023/12/19 08:04:00;;;;;;;26.55;21.08;;;;;;;6.30;100.00;102005.44;5068172;28;20029;-80
2023/12/19 08:06:26;;;;;;;27.92;21.30;;;;;;;6.31;100.00;102014.13;5068533;28;20013;-80
2023/12/19 08:08:52;;;;;;;28.75;21.98;;;;;;;6.32;100.00;101997.53;5068198;28;20082;-80
2023/12/19 08:11:18;;;;;;;29.92;22.80;;;;;;;6.31;100.00;101980.16;5069204;28;20362;-80
2023/12/19 08:13:50;;;;;;;27.45;22.55;;;;;;;6.28;100.00;101979.34;5069320;28;20028;-80
2023/12/19 08:16:16;;;;;;;29.52;22.30;;;;;;;6.27;100.00;101995.94;5050497;28;20508;-80
2023/12/19 08:18:42;;;;;;;30.35;23.63;;;;;;;6.26;100.00;101999.47;5064193;28;20032;-80
2023/12/19 08:21:08;;;;;;;30.33;22.15;;;;;;;6.24;100.00;102001.28;5068354;28;20027;-79
2023/12/19 08:23:33;;;;;;;30.73;22.98;;;;;;;6.22;100.00;101992.66;5067905;28;20078;-79
2023/12/19 08:25:58;;;;;;;30.85;22.90;;;;;;;6.22;100.00;101989.19;5056971;28;20029;-80
2023/12/19 08:28:24;;;;;;;28.52;22.77;;;;;;;6.21;100.00;101990.09;5055949;28;20028;-80
2023/12/19 08:30:49;;;;;;;32.53;23.05;;;;;;;6.20;100.00;101985.78;5063649;28;20029;-81
2023/12/19 08:33:15;;;;;;;32.42;23.50;;;;;;;6.17;100.00;101984.16;5062196;28;20037;-80
2023/12/19 08:35:40;;;;;;;31.45;23.58;;;;;;;6.18;100.00;101988.47;5063690;28;20064;-80
2023/12/19 08:38:06;;;;;;;30.13;23.05;;;;;;;6.17;100.00;102004.19;5058392;28;20423;-81
2023/12/19 08:40:31;;;;;;;30.77;23.83;;;;;;;6.16;100.00;101992.91;5064604;28;20036;-81
2023/12/19 08:43:00;;;;;;;31.60;24.15;;;;;;;6.15;100.00;101991.19;5060381;28;20075;-81
2023/12/19 08:45:28;;;;;;;31.98;22.75;;;;;;;6.14;100.00;101983.41;5055915;28;20496;-80
2023/12/19 08:47:54;;;;;;;32.17;23.65;;;;;;;6.12;100.00;101983.47;5067503;28;20032;-80
2023/12/19 08:50:20;;;;;;;32.40;23.33;;;;;;;6.14;100.00;101986.88;5065580;28;20478;-81
2023/12/19 08:52:45;;;;;;;36.60;23.88;;;;;;;6.11;100.00;101988.75;5056787;28;20028;-81
2023/12/19 08:55:12;;;;;;;32.25;24.70;;;;;;;6.10;100.00;101977.44;5064993;28;20035;-81
2023/12/19 08:57:45;;;;;;;31.42;23.92;;;;;;;6.09;100.00;101980.97;5057674;28;20033;-80
2023/12/19 09:00:13;;;;;;;35.00;24.42;;;;;;;6.08;100.00;101978.41;5058398;28;20024;-80
2023/12/19 09:02:42;;;;;;;30.45;23.90;;;;;;;6.08;100.00;101971.44;5065485;28;20063;-81
2023/12/19 09:05:12;;;;;;;31.25;23.90;;;;;;;6.08;100.00;101966.22;5060318;28;20060;-79
2023/12/19 09:07:38;;;;;;;33.65;23.65;;;;;;;6.08;100.00;101974.03;5065227;28;20472;-80
2023/12/19 09:10:05;;;;;;;32.28;23.85;;;;;;;6.06;100.00;101973.25;5066980;28;20024;-80
2023/12/19 09:12:31;;;;;;;29.30;22.80;;;;;;;6.06;100.00;101970.63;5068308;28;20059;-79
2023/12/19 09:14:56;;;;;;;28.80;23.05;;;;;;;6.04;100.00;101967.22;5068543;28;20107;-80
2023/12/19 09:17:22;;;;;;;29.42;22.05;;;;;;;6.04;100.00;101961.16;5066563;28;20127;-80
2023/12/19 09:19:47;;;;;;;26.73;21.63;;;;;;;6.04;100.00;101955.94;5067937;28;20028;-79
2023/12/19 09:22:12;;;;;;;30.90;22.73;;;;;;;6.07;100.00;101950.59;5068251;28;20024;-80
2023/12/19 09:24:38;;;;;;;28.25;22.00;;;;;;;6.06;100.00;101938.44;5049453;28;20025;-80
2023/12/19 09:27:04;;;;;;;25.15;20.00;;;;;;;6.08;100.00;101952.28;5055928;28;20377;-80
2023/12/19 09:29:29;;;;;;;28.75;21.35;;;;;;;6.06;100.00;101941.91;5067106;28;20075;-80
2023/12/19 09:31:56;;;;;;;27.33;20.70;;;;;;;6.07;100.00;101950.59;5067756;28;20052;-80
2023/12/19 09:34:21;;;;;;;26.13;20.45;;;;;;;6.06;100.00;101934.06;5067879;28;20036;-80
2023/12/19 09:36:46;;;;;;;26.13;19.38;;;;;;;6.07;100.00;101941.00;5067428;28;20639;-79
2023/12/19 09:39:18;;;;;;;24.70;19.52;;;;;;;6.08;100.00;101945.31;5067520;28;20036;-80
2023/12/19 09:41:45;;;;;;;26.10;19.60;;;;;;;6.07;100.00;101935.75;5069068;28;20032;-80
2023/12/19 09:44:11;;;;;;;25.10;19.20;;;;;;;6.09;100.00;101938.31;5067993;28;20032;-79
2023/12/19 09:46:36;;;;;;;22.13;18.15;;;;;;;6.09;100.00;101933.09;5068242;28;20031;-79
2023/12/19 09:49:02;;;;;;;20.92;18.20;;;;;;;6.11;100.00;101931.28;5067952;28;20489;-79
2023/12/19 09:51:34;;;;;;;19.90;17.50;;;;;;;6.11;100.00;101926.06;5067803;28;20032;-79
2023/12/19 09:54:03;;;;;;;20.92;17.80;;;;;;;6.12;100.00;101923.38;5070005;28;20024;-79
2023/12/19 09:56:28;;;;;;;20.30;16.80;;;;;;;6.12;100.00;101920.75;5072000;28;20036;-79
2023/12/19 09:59:02;;;;;;;19.65;17.58;;;;;;;6.13;100.00;101909.41;5072944;28;20047;-79
2023/12/19 10:01:28;;;;;;;19.20;16.45;;;;;;;6.14;100.00;101921.56;5064736;28;20024;-79
2023/12/19 10:03:55;;;;;;;21.40;17.13;;;;;;;6.15;100.00;101907.59;5052519;28;20024;-79
2023/12/19 10:06:22;;;;;;;19.92;16.75;;;;;;;6.16;100.00;101906.66;5071177;28;20032;-79
2023/12/19 10:08:50;;;;;;;21.17;16.85;;;;;;;6.17;100.00;101895.31;5073144;28;20047;-79
2023/12/19 10:11:21;;;;;;;18.60;16.42;;;;;;;6.18;100.00;101896.16;5067427;28;20088;-80
2023/12/19 10:13:47;;;;;;;20.63;16.73;;;;;;;6.20;100.00;101894.34;5072588;28;20130;-79
2023/12/19 10:16:13;;;;;;;22.30;16.60;;;;;;;6.21;100.00;101912.56;5070908;28;20115;-78
2023/12/19 10:18:39;;;;;;;21.73;17.42;;;;;;;6.22;100.00;101903.81;5071888;28;20128;-79
2023/12/19 10:21:18;;;;;;;19.50;17.40;;;;;;;6.24;100.00;101903.75;5069808;28;20016;-79
2023/12/19 10:23:44;;;;;;;18.15;16.13;;;;;;;6.24;100.00;101890.69;5071350;28;20488;-79
2023/12/19 10:26:10;;;;;;;17.80;15.93;;;;;;;6.25;100.00;101897.63;5071259;28;20031;-79
2023/12/19 10:28:37;;;;;;;18.65;16.08;;;;;;;6.24;100.00;101888.06;5064641;28;20032;-79
2023/12/19 10:31:05;;;;;;;19.63;17.08;;;;;;;6.24;100.00;101882.84;5069444;28;20112;-79
2023/12/19 10:33:39;;;;;;;20.10;16.88;;;;;;;6.27;100.00;101865.28;5061440;28;20116;-80
2023/12/19 10:36:05;;;;;;;18.75;16.35;;;;;;;6.27;100.00;101856.59;5059727;28;20048;-79
2023/12/19 10:38:46;;;;;;;20.13;16.90;;;;;;;6.31;100.00;101854.72;5071683;28;20052;-80
2023/12/19 10:41:20;;;;;;;19.02;16.58;;;;;;;6.31;100.00;101859.94;5069025;28;20020;-79
2023/12/19 10:43:47;;;;;;;18.63;16.50;;;;;;;6.32;100.00;101848.56;5067216;28;20036;-80
2023/12/19 10:46:14;;;;;;;19.85;16.25;;;;;;;6.35;100.00;101845.81;5070154;28;20098;-80
2023/12/19 10:48:39;;;;;;;20.65;16.98;;;;;;;6.34;100.00;101860.66;5081130;28;20393;-80
2023/12/19 10:51:08;;;;;;;18.30;16.40;;;;;;;6.35;100.00;101845.81;5069766;28;20032;-80
2023/12/19 10:53:35;;;;;;;23.10;16.42;;;;;;;6.36;100.00;101834.47;5071141;28;20048;-79
2023/12/19 10:56:07;;;;;;;19.75;17.13;;;;;;;6.36;100.00;101826.63;5066496;28;20029;-80
2023/12/19 10:58:35;;;;;;;19.38;16.70;;;;;;;6.37;100.00;101812.63;5064254;28;20025;-79
2023/12/19 11:01:07;;;;;;;20.55;17.02;;;;;;;6.38;100.00;101809.97;5051900;28;20385;-79
2023/12/19 11:03:44;;;;;;;20.48;17.33;;;;;;;6.40;100.00;101799.44;5064770;28;20484;-79
2023/12/19 11:06:17;;;;;;;18.95;17.05;;;;;;;6.40;100.00;101800.28;5052403;28;20071;-79